Lebec, CA (93243)

12:46 AM PDT on October 23, 2017 (GMT -0700)
Tejon Ranch | | Change Station
Active Advisory: Fire Weather Warning

Elev 3527 ft 34.84 °N, 118.86 °W | Updated 24 seconds ago

Clear
Clear
45.2 °F
Feels Like 44 °F
N
3.3
Wind Variable Wind from SSW
Gusts 6.0 mph

Today
High -- | Low -- °F
--% Chance of Precip.
Yesterday
High -- | Low -- °F
Precip. -- in
Pressure 30.22 in
Visibility 10.0 miles
Clouds Clear
Windchill 44 °F
Dew Point 36 °F
Humidity 71%
Rainfall 0.00 in
Snow Depth Not available.
7:08 AM 6:10 PM
Waxing Crescent, 12% visible
METAR KSDB 230653Z AUTO 07017KT 10SM CLR 20/M03 A3037 RMK AO2 SLP233 T02001033
Pressure 30.22 in
Visibility 10.0 miles
Clouds Clear
Windchill 44 °F
Dew Point 36 °F
Humidity 71%
Rainfall 0.00 in
Snow Depth Not available.
7:08 AM 6:10 PM
Waxing Crescent, 12% visible
METAR KSDB 230653Z AUTO 07017KT 10SM CLR 20/M03 A3037 RMK AO2 SLP233 T02001033

Get Your Daily Forecast Email!

Thanks for signing up!

Be on the lookout for a verification email in your inbox.

You'll start receiving severe weather alerts in your inbox..

×

10-Day Weather Forecast

Almanac

Astronomy

Oct. 23, 2017 Rise Set
Actual Time
Civil Twilight
Nautical Twilight
Astronomical Twilight
Moon
Length of Visible Light
Length of Day
Tomorrow will be .
, % of the Moon is Illuminated

Today's Extremes

State Highs State Lows

Community

WunderPhotos

Category 6

Welcome to Category 6. This is the collective home for Weather Underground's featured writeups by Dr. Jeff Masters (right), Bob Henson (left), Chris Burt, and other regular contributors.

Nearby

Air Quality

  Air Quality AQ Index Pollutant
Not available.

Snow Depth

Station Depth Elevation

Earthquake Activity

City Distance Mag. Time & Date
Minimum magnitude displayed is 2.5.

Coastal Water Temperatures

Place Temperature

Stations

Nearby Weather Stations

Station Location Temp. Windchill Dew Point Humidity Wind Precip. Elev Updated Type
                   

Watches & Warnings

Fire Weather Warning
Issued: 8:39 PM PDT Oct. 22, 2017 – National Weather Service

... Red flag warning remains in effect from 2 am Monday to 6 PM
PDT Tuesday for gusty winds and low humidity for fire weather
zone 295...

* affected area... Kern County mountains... fire weather zone 295.

* Wind... winds from the east 15 to 25 mph with gusts to 35 mph.
Occasional gusts to 45 mph will be possible on Tuesday
morning.

* Humidity... minimum relative humidity of 8 to 15 percent.

* Impacts... any fires that develop will likely spread rapidly.
Outdoor burning is not recommended.

Precautionary/preparedness actions...

A red flag warning means that critical fire weather conditions
are either occurring now, or will shortly. A combination of
strong winds, low relative humidity, and warm temperatures can
contribute to extreme fire behavior.



Bean